sensor_id;sensor_type;location;lat;lon;timestamp;pressure;altitude;pressure_sealevel;temperature;humidity
66742;BME280;53654;54.152;19.432;2023-06-14T00:00:00;101767.27;;;15.68;59.59
66742;BME280;53654;54.152;19.432;2023-06-14T00:02:31;101768.25;;;15.59;60.87
66742;BME280;53654;54.152;19.432;2023-06-14T00:05:00;101767.45;;;15.50;61.89
66742;BME280;53654;54.152;19.432;2023-06-14T00:07:36;101769.14;;;15.41;62.74
66742;BME280;53654;54.152;19.432;2023-06-14T00:10:06;101772.42;;;15.32;63.02
66742;BME280;53654;54.152;19.432;2023-06-14T00:12:35;101771.09;;;15.25;63.36
66742;BME280;53654;54.152;19.432;2023-06-14T00:15:05;101773.30;;;15.16;63.30
66742;BME280;53654;54.152;19.432;2023-06-14T00:17:33;101776.55;;;15.09;63.74
66742;BME280;53654;54.152;19.432;2023-06-14T00:20:03;101773.27;;;15.03;63.90
66742;BME280;53654;54.152;19.432;2023-06-14T00:22:35;101778.80;;;14.94;64.01
66742;BME280;53654;54.152;19.432;2023-06-14T00:25:06;101782.03;;;14.88;64.68
66742;BME280;53654;54.152;19.432;2023-06-14T00:27:51;101775.61;;;14.80;65.18
66742;BME280;53654;54.152;19.432;2023-06-14T00:30:19;101775.30;;;14.76;65.87
66742;BME280;53654;54.152;19.432;2023-06-14T00:32:48;101771.65;;;14.72;66.76
66742;BME280;53654;54.152;19.432;2023-06-14T00:35:18;101766.91;;;14.71;67.14
66742;BME280;53654;54.152;19.432;2023-06-14T00:37:46;101766.73;;;14.71;67.21
66742;BME280;53654;54.152;19.432;2023-06-14T00:40:14;101761.64;;;14.72;67.47
66742;BME280;53654;54.152;19.432;2023-06-14T00:42:45;101762.34;;;14.72;67.46
66742;BME280;53654;54.152;19.432;2023-06-14T00:45:13;101759.89;;;14.71;67.64
66742;BME280;53654;54.152;19.432;2023-06-14T00:47:42;101761.13;;;14.71;67.70
66742;BME280;53654;54.152;19.432;2023-06-14T00:50:11;101757.98;;;14.69;68.00
66742;BME280;53654;54.152;19.432;2023-06-14T00:52:40;101758.00;;;14.67;68.18
66742;BME280;53654;54.152;19.432;2023-06-14T00:55:09;101755.72;;;14.66;68.44
66742;BME280;53654;54.152;19.432;2023-06-14T00:57:38;101758.71;;;14.66;68.50
66742;BME280;53654;54.152;19.432;2023-06-14T01:00:08;101767.14;;;14.66;68.56
66742;BME280;53654;54.152;19.432;2023-06-14T01:02:38;101768.56;;;14.65;68.46
66742;BME280;53654;54.152;19.432;2023-06-14T01:05:10;101766.27;;;14.66;68.69
66742;BME280;53654;54.152;19.432;2023-06-14T01:13:26;101756.08;;;14.66;68.40
66742;BME280;53654;54.152;19.432;2023-06-14T01:15:56;101751.65;;;14.69;68.42
66742;BME280;53654;54.152;19.432;2023-06-14T01:18:24;101748.65;;;14.71;68.29
66742;BME280;53654;54.152;19.432;2023-06-14T01:20:54;101752.84;;;14.73;68.25
66742;BME280;53654;54.152;19.432;2023-06-14T01:23:25;101752.30;;;14.74;68.16
66742;BME280;53654;54.152;19.432;2023-06-14T01:26:01;101751.42;;;14.75;68.06
66742;BME280;53654;54.152;19.432;2023-06-14T01:28:32;101746.86;;;14.75;68.09
66742;BME280;53654;54.152;19.432;2023-06-14T01:31:02;101751.25;;;14.74;68.02
66742;BME280;53654;54.152;19.432;2023-06-14T01:33:35;101759.17;;;14.72;68.02
66742;BME280;53654;54.152;19.432;2023-06-14T01:36:05;101753.10;;;14.64;68.10
66742;BME280;53654;54.152;19.432;2023-06-14T01:38:35;101746.67;;;14.58;68.28
66742;BME280;53654;54.152;19.432;2023-06-14T01:41:04;101749.52;;;14.52;68.56
66742;BME280;53654;54.152;19.432;2023-06-14T01:43:33;101751.84;;;14.48;68.78
66742;BME280;53654;54.152;19.432;2023-06-14T01:46:05;101751.53;;;14.43;68.97
66742;BME280;53654;54.152;19.432;2023-06-14T01:48:34;101753.65;;;14.38;69.11
66742;BME280;53654;54.152;19.432;2023-06-14T01:51:04;101758.79;;;14.33;69.17
66742;BME280;53654;54.152;19.432;2023-06-14T01:53:32;101762.86;;;14.28;69.21
66742;BME280;53654;54.152;19.432;2023-06-14T01:56:00;101765.67;;;14.27;69.30
66742;BME280;53654;54.152;19.432;2023-06-14T01:58:31;101762.55;;;14.22;69.27
66742;BME280;53654;54.152;19.432;2023-06-14T02:00:59;101759.80;;;14.16;69.41
66742;BME280;53654;54.152;19.432;2023-06-14T02:03:29;101758.42;;;14.11;69.48
66742;BME280;53654;54.152;19.432;2023-06-14T02:05:58;101757.39;;;14.08;69.33
66742;BME280;53654;54.152;19.432;2023-06-14T02:08:27;101756.55;;;14.04;69.36
66742;BME280;53654;54.152;19.432;2023-06-14T02:10:55;101756.22;;;14.00;69.40
66742;BME280;53654;54.152;19.432;2023-06-14T02:13:23;101764.83;;;13.97;69.43
66742;BME280;53654;54.152;19.432;2023-06-14T02:15:51;101764.16;;;13.92;69.44
66742;BME280;53654;54.152;19.432;2023-06-14T02:18:23;101761.91;;;13.85;69.48
66742;BME280;53654;54.152;19.432;2023-06-14T02:20:51;101761.06;;;13.80;69.73
66742;BME280;53654;54.152;19.432;2023-06-14T02:23:19;101762.49;;;13.78;69.83
66742;BME280;53654;54.152;19.432;2023-06-14T02:25:47;101764.79;;;13.75;70.14
66742;BME280;53654;54.152;19.432;2023-06-14T02:28:15;101762.01;;;13.71;70.25
66742;BME280;53654;54.152;19.432;2023-06-14T02:30:43;101764.30;;;13.67;70.47
66742;BME280;53654;54.152;19.432;2023-06-14T02:33:12;101766.77;;;13.64;70.59
66742;BME280;53654;54.152;19.432;2023-06-14T02:35:41;101769.06;;;13.61;70.75
66742;BME280;53654;54.152;19.432;2023-06-14T02:38:09;101765.40;;;13.57;70.81
66742;BME280;53654;54.152;19.432;2023-06-14T02:40:37;101767.86;;;13.57;71.03
66742;BME280;53654;54.152;19.432;2023-06-14T02:43:05;101771.73;;;13.53;71.33
66742;BME280;53654;54.152;19.432;2023-06-14T02:45:33;101770.16;;;13.51;71.69
66742;BME280;53654;54.152;19.432;2023-06-14T02:48:03;101770.52;;;13.48;71.59
66742;BME280;53654;54.152;19.432;2023-06-14T02:50:31;101762.83;;;13.45;71.68
66742;BME280;53654;54.152;19.432;2023-06-14T02:53:00;101763.02;;;13.42;72.15
66742;BME280;53654;54.152;19.432;2023-06-14T02:55:29;101757.77;;;13.40;72.50
66742;BME280;53654;54.152;19.432;2023-06-14T02:57:57;101753.38;;;13.40;72.77
66742;BME280;53654;54.152;19.432;2023-06-14T03:00:26;101748.30;;;13.41;72.80
66742;BME280;53654;54.152;19.432;2023-06-14T03:02:54;101752.84;;;13.43;72.92
66742;BME280;53654;54.152;19.432;2023-06-14T03:05:23;101755.64;;;13.45;73.21
66742;BME280;53654;54.152;19.432;2023-06-14T03:07:51;101754.40;;;13.47;73.21
66742;BME280;53654;54.152;19.432;2023-06-14T03:10:21;101759.31;;;13.49;73.22
66742;BME280;53654;54.152;19.432;2023-06-14T03:12:50;101762.96;;;13.54;73.41
66742;BME280;53654;54.152;19.432;2023-06-14T03:15:21;101766.80;;;13.57;73.34
66742;BME280;53654;54.152;19.432;2023-06-14T03:17:51;101764.34;;;13.57;73.38
66742;BME280;53654;54.152;19.432;2023-06-14T03:20:21;101765.39;;;13.59;73.58
66742;BME280;53654;54.152;19.432;2023-06-14T03:22:50;101768.02;;;13.61;73.49
66742;BME280;53654;54.152;19.432;2023-06-14T03:25:18;101767.13;;;13.62;73.39
66742;BME280;53654;54.152;19.432;2023-06-14T03:27:48;101766.77;;;13.63;73.45
66742;BME280;53654;54.152;19.432;2023-06-14T03:30:16;101767.80;;;13.66;73.41
66742;BME280;53654;54.152;19.432;2023-06-14T03:32:46;101767.62;;;13.71;73.35
66742;BME280;53654;54.152;19.432;2023-06-14T03:35:14;101767.77;;;13.74;73.40
66742;BME280;53654;54.152;19.432;2023-06-14T03:37:47;101763.36;;;13.78;73.35
66742;BME280;53654;54.152;19.432;2023-06-14T03:40:18;101769.30;;;13.81;73.16
66742;BME280;53654;54.152;19.432;2023-06-14T03:42:50;101763.66;;;13.87;73.06
66742;BME280;53654;54.152;19.432;2023-06-14T03:45:19;101763.27;;;13.93;72.87
66742;BME280;53654;54.152;19.432;2023-06-14T03:47:47;101765.34;;;13.99;72.58
66742;BME280;53654;54.152;19.432;2023-06-14T03:50:17;101761.95;;;14.08;72.53
66742;BME280;53654;54.152;19.432;2023-06-14T03:52:48;101763.56;;;14.28;72.03
66742;BME280;53654;54.152;19.432;2023-06-14T03:55:17;101766.56;;;14.51;71.22
66742;BME280;53654;54.152;19.432;2023-06-14T03:57:48;101768.70;;;14.68;70.34
66742;BME280;53654;54.152;19.432;2023-06-14T04:00:17;101764.94;;;14.93;69.56
66742;BME280;53654;54.152;19.432;2023-06-14T04:02:46;101766.90;;;15.38;68.72
66742;BME280;53654;54.152;19.432;2023-06-14T04:05:14;101759.10;;;15.98;66.92
66742;BME280;53654;54.152;19.432;2023-06-14T04:07:47;101759.96;;;16.66;64.59
66742;BME280;53654;54.152;19.432;2023-06-14T04:10:16;101760.30;;;17.23;62.73
66742;BME280;53654;54.152;19.432;2023-06-14T04:12:45;101757.95;;;17.85;60.65
66742;BME280;53654;54.152;19.432;2023-06-14T04:15:13;101761.52;;;18.14;58.80
66742;BME280;53654;54.152;19.432;2023-06-14T04:17:49;101767.12;;;18.24;58.02
66742;BME280;53654;54.152;19.432;2023-06-14T04:20:20;101765.83;;;18.25;57.91
66742;BME280;53654;54.152;19.432;2023-06-14T04:22:48;101766.12;;;18.21;57.92
66742;BME280;53654;54.152;19.432;2023-06-14T04:25:17;101764.70;;;18.14;57.97
66742;BME280;53654;54.152;19.432;2023-06-14T04:27:51;101755.92;;;18.05;58.45
66742;BME280;53654;54.152;19.432;2023-06-14T04:30:21;101753.67;;;17.96;58.69
66742;BME280;53654;54.152;19.432;2023-06-14T04:32:55;101752.24;;;17.88;59.00
66742;BME280;53654;54.152;19.432;2023-06-14T04:35:25;101749.39;;;17.82;59.53
66742;BME280;53654;54.152;19.432;2023-06-14T04:37:54;101741.83;;;17.81;59.91
66742;BME280;53654;54.152;19.432;2023-06-14T04:40:23;101744.84;;;18.24;59.91
66742;BME280;53654;54.152;19.432;2023-06-14T04:42:51;101742.27;;;18.91;58.34
66742;BME280;53654;54.152;19.432;2023-06-14T04:45:20;101739.11;;;19.52;56.43
66742;BME280;53654;54.152;19.432;2023-06-14T04:47:51;101740.50;;;20.10;54.57
66742;BME280;53654;54.152;19.432;2023-06-14T04:50:27;101735.48;;;20.60;52.89
66742;BME280;53654;54.152;19.432;2023-06-14T04:52:57;101737.20;;;20.93;51.48
66742;BME280;53654;54.152;19.432;2023-06-14T04:55:28;101734.52;;;21.47;50.02
66742;BME280;53654;54.152;19.432;2023-06-14T04:57:57;101731.21;;;22.12;48.51
66742;BME280;53654;54.152;19.432;2023-06-14T05:00:26;101730.26;;;22.73;46.51
66742;BME280;53654;54.152;19.432;2023-06-14T05:02:54;101726.52;;;23.06;44.90
66742;BME280;53654;54.152;19.432;2023-06-14T05:05:23;101723.90;;;23.16;44.56
66742;BME280;53654;54.152;19.432;2023-06-14T05:07:52;101728.72;;;23.16;44.23
66742;BME280;53654;54.152;19.432;2023-06-14T05:10:20;101731.96;;;23.11;43.96
66742;BME280;53654;54.152;19.432;2023-06-14T05:12:48;101736.20;;;23.00;43.75
66742;BME280;53654;54.152;19.432;2023-06-14T05:15:18;101736.94;;;22.92;44.03
66742;BME280;53654;54.152;19.432;2023-06-14T05:17:47;101736.30;;;22.94;43.99
66742;BME280;53654;54.152;19.432;2023-06-14T05:20:22;101733.73;;;23.04;44.15
66742;BME280;53654;54.152;19.432;2023-06-14T05:22:53;101734.34;;;23.06;43.67
66742;BME280;53654;54.152;19.432;2023-06-14T05:25:21;101733.05;;;22.99;43.38
66742;BME280;53654;54.152;19.432;2023-06-14T05:27:49;101734.08;;;22.92;43.45
66742;BME280;53654;54.152;19.432;2023-06-14T05:30:18;101744.95;;;22.83;43.77
66742;BME280;53654;54.152;19.432;2023-06-14T05:32:46;101754.35;;;22.67;43.74
66742;BME280;53654;54.152;19.432;2023-06-14T05:35:14;101760.50;;;22.39;44.28
66742;BME280;53654;54.152;19.432;2023-06-14T05:37:43;101755.27;;;22.11;45.40
66742;BME280;53654;54.152;19.432;2023-06-14T05:40:11;101740.36;;;21.83;46.08
66742;BME280;53654;54.152;19.432;2023-06-14T05:42:39;101753.06;;;21.63;46.65
66742;BME280;53654;54.152;19.432;2023-06-14T05:45:08;101759.52;;;21.43;47.81
66742;BME280;53654;54.152;19.432;2023-06-14T05:47:36;101769.11;;;21.13;50.04
66742;BME280;53654;54.152;19.432;2023-06-14T05:50:05;101771.77;;;20.82;51.53
66742;BME280;53654;54.152;19.432;2023-06-14T05:52:34;101762.33;;;20.58;52.46
66742;BME280;53654;54.152;19.432;2023-06-14T05:55:03;101764.81;;;20.36;53.39
66742;BME280;53654;54.152;19.432;2023-06-14T05:57:31;101770.34;;;20.18;54.05
66742;BME280;53654;54.152;19.432;2023-06-14T05:59:59;101772.05;;;20.04;54.38
66742;BME280;53654;54.152;19.432;2023-06-14T06:02:28;101775.76;;;19.93;54.67
66742;BME280;53654;54.152;19.432;2023-06-14T06:04:56;101767.77;;;19.82;54.49
66742;BME280;53654;54.152;19.432;2023-06-14T06:07:24;101761.60;;;19.70;54.81
66742;BME280;53654;54.152;19.432;2023-06-14T06:09:52;101763.77;;;19.62;54.42
66742;BME280;53654;54.152;19.432;2023-06-14T06:12:21;101768.83;;;19.59;54.67
66742;BME280;53654;54.152;19.432;2023-06-14T06:14:49;101769.76;;;19.57;54.77
66742;BME280;53654;54.152;19.432;2023-06-14T06:17:17;101768.80;;;19.60;55.01
66742;BME280;53654;54.152;19.432;2023-06-14T06:19:45;101772.70;;;19.66;55.27
66742;BME280;53654;54.152;19.432;2023-06-14T06:22:13;101769.68;;;19.72;55.66
66742;BME280;53654;54.152;19.432;2023-06-14T06:24:41;101768.42;;;19.78;55.51
66742;BME280;53654;54.152;19.432;2023-06-14T06:27:12;101769.36;;;19.88;55.91
66742;BME280;53654;54.152;19.432;2023-06-14T06:29:42;101763.48;;;20.00;55.51
66742;BME280;53654;54.152;19.432;2023-06-14T06:32:11;101767.36;;;20.12;54.90
66742;BME280;53654;54.152;19.432;2023-06-14T06:34:39;101764.30;;;20.24;54.98
66742;BME280;53654;54.152;19.432;2023-06-14T06:37:08;101763.25;;;20.36;54.60
66742;BME280;53654;54.152;19.432;2023-06-14T06:39:36;101762.42;;;20.45;53.81
66742;BME280;53654;54.152;19.432;2023-06-14T06:42:05;101762.44;;;20.55;53.80
66742;BME280;53654;54.152;19.432;2023-06-14T06:44:36;101763.64;;;20.66;53.33
66742;BME280;53654;54.152;19.432;2023-06-14T06:47:04;101764.45;;;20.79;53.01
66742;BME280;53654;54.152;19.432;2023-06-14T06:49:32;101761.91;;;20.91;52.11
66742;BME280;53654;54.152;19.432;2023-06-14T06:52:03;101763.66;;;21.07;52.00
66742;BME280;53654;54.152;19.432;2023-06-14T06:54:32;101764.27;;;21.24;50.85
66742;BME280;53654;54.152;19.432;2023-06-14T06:57:00;101763.08;;;21.47;50.88
66742;BME280;53654;54.152;19.432;2023-06-14T06:59:29;101766.38;;;21.73;49.76
66742;BME280;53654;54.152;19.432;2023-06-14T07:01:58;101759.98;;;21.95;48.79
66742;BME280;53654;54.152;19.432;2023-06-14T07:04:26;101766.06;;;22.16;48.67
66742;BME280;53654;54.152;19.432;2023-06-14T07:06:54;101764.05;;;22.39;47.00
66742;BME280;53654;54.152;19.432;2023-06-14T07:09:23;101764.23;;;22.60;44.80
66742;BME280;53654;54.152;19.432;2023-06-14T07:11:52;101760.75;;;22.80;43.65
66742;BME280;53654;54.152;19.432;2023-06-14T07:14:20;101764.27;;;22.97;43.04
66742;BME280;53654;54.152;19.432;2023-06-14T07:16:50;101765.33;;;23.09;41.98
66742;BME280;53654;54.152;19.432;2023-06-14T07:19:19;101768.58;;;23.16;40.93
66742;BME280;53654;54.152;19.432;2023-06-14T07:21:47;101767.44;;;23.18;38.48
66742;BME280;53654;54.152;19.432;2023-06-14T07:24:15;101771.10;;;23.15;37.90
66742;BME280;53654;54.152;19.432;2023-06-14T07:26:44;101773.61;;;23.07;37.18
66742;BME280;53654;54.152;19.432;2023-06-14T07:29:12;101773.83;;;22.98;37.38
66742;BME280;53654;54.152;19.432;2023-06-14T07:31:40;101776.33;;;22.86;37.17
66742;BME280;53654;54.152;19.432;2023-06-14T07:34:08;101780.12;;;22.75;37.25
66742;BME280;53654;54.152;19.432;2023-06-14T07:36:36;101785.20;;;22.65;37.52
66742;BME280;53654;54.152;19.432;2023-06-14T07:39:06;101788.14;;;22.54;37.58
66742;BME280;53654;54.152;19.432;2023-06-14T07:41:34;101792.06;;;22.46;37.93
66742;BME280;53654;54.152;19.432;2023-06-14T07:44:03;101787.32;;;22.36;37.88
66742;BME280;53654;54.152;19.432;2023-06-14T07:46:31;101786.25;;;22.23;38.41
66742;BME280;53654;54.152;19.432;2023-06-14T07:49:00;101786.65;;;22.08;38.24
66742;BME280;53654;54.152;19.432;2023-06-14T07:51:28;101795.02;;;21.94;38.77
66742;BME280;53654;54.152;19.432;2023-06-14T07:53:56;101791.27;;;21.85;39.25
66742;BME280;53654;54.152;19.432;2023-06-14T07:56:24;101800.61;;;21.78;39.31
66742;BME280;53654;54.152;19.432;2023-06-14T07:58:53;101798.23;;;21.66;39.74
66742;BME280;53654;54.152;19.432;2023-06-14T08:01:21;101798.64;;;21.60;39.56
66742;BME280;53654;54.152;19.432;2023-06-14T08:03:52;101802.17;;;21.55;39.86
66742;BME280;53654;54.152;19.432;2023-06-14T08:06:20;101800.60;;;21.50;40.21
66742;BME280;53654;54.152;19.432;2023-06-14T08:08:48;101803.30;;;21.45;40.51
66742;BME280;53654;54.152;19.432;2023-06-14T08:11:16;101802.24;;;21.39;40.86
66742;BME280;53654;54.152;19.432;2023-06-14T08:13:44;101797.55;;;21.37;40.68
66742;BME280;53654;54.152;19.432;2023-06-14T08:16:12;101795.79;;;21.37;40.69
66742;BME280;53654;54.152;19.432;2023-06-14T08:18:41;101798.33;;;21.35;40.50
66742;BME280;53654;54.152;19.432;2023-06-14T08:21:09;101797.02;;;21.32;40.12
66742;BME280;53654;54.152;19.432;2023-06-14T08:23:37;101799.63;;;21.33;40.25
66742;BME280;53654;54.152;19.432;2023-06-14T08:26:05;101796.28;;;21.38;40.10
66742;BME280;53654;54.152;19.432;2023-06-14T08:28:34;101794.33;;;21.42;40.34
66742;BME280;53654;54.152;19.432;2023-06-14T08:31:02;101795.05;;;21.47;40.15
66742;BME280;53654;54.152;19.432;2023-06-14T08:33:30;101787.73;;;21.52;40.25
66742;BME280;53654;54.152;19.432;2023-06-14T08:36:01;101789.08;;;21.60;39.91
66742;BME280;53654;54.152;19.432;2023-06-14T08:38:29;101788.25;;;21.67;39.22
66742;BME280;53654;54.152;19.432;2023-06-14T08:40:58;101788.25;;;21.76;39.20
66742;BME280;53654;54.152;19.432;2023-06-14T08:43:26;101790.52;;;21.87;38.90
66742;BME280;53654;54.152;19.432;2023-06-14T08:45:58;101792.15;;;21.94;38.71
66742;BME280;53654;54.152;19.432;2023-06-14T08:48:28;101796.17;;;22.01;38.15
66742;BME280;53654;54.152;19.432;2023-06-14T08:50:59;101792.09;;;22.06;38.19
66742;BME280;53654;54.152;19.432;2023-06-14T08:53:32;101787.50;;;22.13;38.19
66742;BME280;53654;54.152;19.432;2023-06-14T08:56:05;101790.62;;;22.29;38.01
66742;BME280;53654;54.152;19.432;2023-06-14T08:58:36;101788.06;;;22.52;37.99
66742;BME280;53654;54.152;19.432;2023-06-14T09:01:06;101785.06;;;22.81;37.52
66742;BME280;53654;54.152;19.432;2023-06-14T09:03:35;101784.36;;;23.13;36.64
66742;BME280;53654;54.152;19.432;2023-06-14T09:06:09;101779.88;;;23.50;35.80
66742;BME280;53654;54.152;19.432;2023-06-14T09:08:42;101771.64;;;23.85;35.46
66742;BME280;53654;54.152;19.432;2023-06-14T09:11:16;101768.02;;;24.23;35.15
66742;BME280;53654;54.152;19.432;2023-06-14T09:13:47;101766.27;;;24.58;34.26
66742;BME280;53654;54.152;19.432;2023-06-14T09:16:16;101763.54;;;24.90;32.51
66742;BME280;53654;54.152;19.432;2023-06-14T09:18:46;101761.64;;;25.19;32.58
66742;BME280;53654;54.152;19.432;2023-06-14T09:21:17;101762.30;;;25.40;31.73
66742;BME280;53654;54.152;19.432;2023-06-14T09:23:47;101760.81;;;25.54;31.91
66742;BME280;53654;54.152;19.432;2023-06-14T09:26:19;101759.29;;;25.66;31.83
66742;BME280;53654;54.152;19.432;2023-06-14T09:28:49;101766.42;;;25.73;31.24
66742;BME280;53654;54.152;19.432;2023-06-14T09:31:19;101764.40;;;25.70;31.48
66742;BME280;53654;54.152;19.432;2023-06-14T09:33:49;101767.50;;;25.66;31.14
66742;BME280;53654;54.152;19.432;2023-06-14T09:36:21;101766.12;;;25.65;30.89
66742;BME280;53654;54.152;19.432;2023-06-14T09:38:57;101762.29;;;25.63;30.35
66742;BME280;53654;54.152;19.432;2023-06-14T09:41:40;101764.64;;;25.63;30.55
66742;BME280;53654;54.152;19.432;2023-06-14T09:44:09;101754.15;;;25.65;30.78
66742;BME280;53654;54.152;19.432;2023-06-14T09:46:47;101753.86;;;25.80;31.14
66742;BME280;53654;54.152;19.432;2023-06-14T09:49:16;101753.67;;;25.93;30.40
66742;BME280;53654;54.152;19.432;2023-06-14T09:51:45;101743.36;;;26.05;29.84
66742;BME280;53654;54.152;19.432;2023-06-14T09:54:22;101740.95;;;26.22;30.25
66742;BME280;53654;54.152;19.432;2023-06-14T09:56:50;101745.77;;;26.38;29.44
66742;BME280;53654;54.152;19.432;2023-06-14T09:59:26;101736.52;;;26.48;29.28
66742;BME280;53654;54.152;19.432;2023-06-14T10:01:59;101737.03;;;26.67;29.20
66742;BME280;53654;54.152;19.432;2023-06-14T10:04:34;101739.50;;;26.85;28.50
66742;BME280;53654;54.152;19.432;2023-06-14T10:07:03;101740.24;;;26.93;27.66
66742;BME280;53654;54.152;19.432;2023-06-14T10:09:33;101736.83;;;26.97;27.14
66742;BME280;53654;54.152;19.432;2023-06-14T10:12:03;101730.80;;;27.05;26.74
66742;BME280;53654;54.152;19.432;2023-06-14T10:14:31;101729.37;;;27.13;25.49
66742;BME280;53654;54.152;19.432;2023-06-14T10:17:12;101727.23;;;27.16;25.25
66742;BME280;53654;54.152;19.432;2023-06-14T10:19:58;101723.98;;;27.16;25.71
66742;BME280;53654;54.152;19.432;2023-06-14T10:22:35;101723.42;;;27.22;25.38
66742;BME280;53654;54.152;19.432;2023-06-14T10:25:12;101728.79;;;27.28;25.38
66742;BME280;53654;54.152;19.432;2023-06-14T10:27:44;101719.28;;;27.31;25.59
66742;BME280;53654;54.152;19.432;2023-06-14T10:30:14;101722.45;;;27.32;25.73
66742;BME280;53654;54.152;19.432;2023-06-14T10:33:07;101715.77;;;27.30;25.73
66742;BME280;53654;54.152;19.432;2023-06-14T10:35:35;101713.89;;;27.20;25.46
66742;BME280;53654;54.152;19.432;2023-06-14T10:38:07;101718.45;;;27.08;25.49
66742;BME280;53654;54.152;19.432;2023-06-14T10:40:36;101717.41;;;26.98;26.03
66742;BME280;53654;54.152;19.432;2023-06-14T10:43:23;101721.90;;;26.89;25.84
66742;BME280;53654;54.152;19.432;2023-06-14T10:46:14;101715.70;;;26.71;26.04
66742;BME280;53654;54.152;19.432;2023-06-14T10:48:44;101721.80;;;26.43;26.22
66742;BME280;53654;54.152;19.432;2023-06-14T10:51:20;101716.86;;;26.30;26.30
66742;BME280;53654;54.152;19.432;2023-06-14T10:53:49;101714.33;;;26.18;26.54
66742;BME280;53654;54.152;19.432;2023-06-14T10:56:30;101716.27;;;26.10;26.72
66742;BME280;53654;54.152;19.432;2023-06-14T10:58:58;101716.42;;;26.00;26.65
66742;BME280;53654;54.152;19.432;2023-06-14T11:04:39;101709.42;;;25.76;27.22
66742;BME280;53654;54.152;19.432;2023-06-14T11:12:34;101710.41;;;25.87;27.21
66742;BME280;53654;54.152;19.432;2023-06-14T11:15:05;101713.23;;;25.96;26.83
66742;BME280;53654;54.152;19.432;2023-06-14T11:17:33;101711.52;;;26.02;26.46
66742;BME280;53654;54.152;19.432;2023-06-14T11:20:10;101714.38;;;26.02;26.31
66742;BME280;53654;54.152;19.432;2023-06-14T11:22:40;101710.58;;;26.06;26.04
66742;BME280;53654;54.152;19.432;2023-06-14T11:25:09;101715.55;;;26.10;25.37
66742;BME280;53654;54.152;19.432;2023-06-14T11:27:38;101711.11;;;26.09;25.29
66742;BME280;53654;54.152;19.432;2023-06-14T11:30:07;101702.83;;;26.16;25.11
66742;BME280;53654;54.152;19.432;2023-06-14T11:32:36;101705.48;;;26.26;25.69
66742;BME280;53654;54.152;19.432;2023-06-14T11:35:05;101697.10;;;26.35;25.58
66742;BME280;53654;54.152;19.432;2023-06-14T11:37:34;101695.52;;;26.37;25.14
66742;BME280;53654;54.152;19.432;2023-06-14T11:40:03;101694.30;;;26.40;25.21
66742;BME280;53654;54.152;19.432;2023-06-14T11:42:40;101695.80;;;26.36;25.73
66742;BME280;53654;54.152;19.432;2023-06-14T11:45:11;101693.84;;;26.36;25.64
66742;BME280;53654;54.152;19.432;2023-06-14T11:47:39;101693.95;;;26.37;25.80
66742;BME280;53654;54.152;19.432;2023-06-14T11:50:09;101699.92;;;26.39;25.68
66742;BME280;53654;54.152;19.432;2023-06-14T11:52:38;101697.58;;;26.33;24.78
66742;BME280;53654;54.152;19.432;2023-06-14T11:55:06;101694.08;;;26.25;25.18
66742;BME280;53654;54.152;19.432;2023-06-14T11:57:35;101704.64;;;26.22;25.55
66742;BME280;53654;54.152;19.432;2023-06-14T12:00:07;101701.73;;;26.14;27.46
66742;BME280;53654;54.152;19.432;2023-06-14T12:02:52;101704.23;;;26.05;28.39
66742;BME280;53654;54.152;19.432;2023-06-14T12:05:22;101696.27;;;25.93;28.99
66742;BME280;53654;54.152;19.432;2023-06-14T12:07:58;101693.79;;;25.83;29.57
66742;BME280;53654;54.152;19.432;2023-06-14T12:10:28;101693.67;;;25.76;30.11
66742;BME280;53654;54.152;19.432;2023-06-14T12:12:58;101689.39;;;25.73;30.39
66742;BME280;53654;54.152;19.432;2023-06-14T12:15:29;101686.84;;;25.64;30.23
66742;BME280;53654;54.152;19.432;2023-06-14T12:17:59;101689.75;;;25.57;30.90
66742;BME280;53654;54.152;19.432;2023-06-14T12:20:31;101689.58;;;25.54;31.41
66742;BME280;53654;54.152;19.432;2023-06-14T12:23:03;101689.14;;;25.55;31.73
66742;BME280;53654;54.152;19.432;2023-06-14T12:25:33;101689.91;;;25.57;31.85
66742;BME280;53654;54.152;19.432;2023-06-14T12:28:07;101689.30;;;25.55;31.72
66742;BME280;53654;54.152;19.432;2023-06-14T12:30:37;101679.84;;;25.52;30.36
66742;BME280;53654;54.152;19.432;2023-06-14T12:33:05;101680.98;;;25.51;30.02
66742;BME280;53654;54.152;19.432;2023-06-14T12:35:35;101681.52;;;25.51;31.26
66742;BME280;53654;54.152;19.432;2023-06-14T12:38:03;101678.24;;;25.55;31.79
66742;BME280;53654;54.152;19.432;2023-06-14T12:40:31;101676.80;;;25.59;31.38
66742;BME280;53654;54.152;19.432;2023-06-14T12:43:00;101681.20;;;25.63;31.83
66742;BME280;53654;54.152;19.432;2023-06-14T12:45:28;101678.92;;;25.66;32.64
66742;BME280;53654;54.152;19.432;2023-06-14T12:47:56;101676.56;;;25.66;33.04
66742;BME280;53654;54.152;19.432;2023-06-14T12:50:24;101673.92;;;25.65;32.50
66742;BME280;53654;54.152;19.432;2023-06-14T12:52:53;101673.02;;;25.65;32.71
66742;BME280;53654;54.152;19.432;2023-06-14T12:55:22;101675.66;;;25.66;32.74
66742;BME280;53654;54.152;19.432;2023-06-14T12:57:50;101678.45;;;25.64;32.14
66742;BME280;53654;54.152;19.432;2023-06-14T13:00:19;101674.28;;;25.56;31.83
66742;BME280;53654;54.152;19.432;2023-06-14T13:02:49;101679.94;;;25.50;29.99
66742;BME280;53654;54.152;19.432;2023-06-14T13:05:19;101677.76;;;25.45;30.16
66742;BME280;53654;54.152;19.432;2023-06-14T13:07:47;101679.48;;;25.39;31.16